^^
Grace C. Lehan Memorial Weather Station Historical Data
Daily Summary for June 17, 2021 Units:  English    Metric   Both
Daily Weekly Monthly Yearly
  High: Low: Average:
Temperature: 79 °F 51.1 °F 69.5 °F
Dew Point: 54.3 °F 43.9 °F 48.2 °F
Humidity: 83% 31.8% 49%
Wind Speed: 5.6mph 0mph 0.9mph
Wind Gust: 15mph - -
Wind- - WNW
Pressure: 29.97 in 29.89 in -
Precipitation: 0.00 in    
 
 
Tabular Data for June 17, 2021
Time Temperature Dew Point Pressure Wind Wind Speed Wind Gust Humidity Rainfall Rate (Hourly) solar
00:09 61.1 °F 44.6 °F 29.90 in NW 1.2 mph 6 mph 54.6% 0.00 in 0 W/m2
00:14 61 °F 44.3 °F 29.90 in NW 0.1 mph 6 mph 54% 0.00 in 0 W/m2
00:19 60.9 °F 44.2 °F 29.90 in NW 0.9 mph 7 mph 54% 0.00 in 0 W/m2
00:24 60.9 °F 44.2 °F 29.90 in NW 1.7 mph 11 mph 54% 0.00 in 0 W/m2
00:29 60.9 °F 44.2 °F 29.90 in WNW 1.3 mph 11 mph 54% 0.00 in 0 W/m2
00:30 60.9 °F 44.2 °F 29.90 in NW 1 mph 11 mph 54% 0.00 in 0 W/m2
01:00 60.6 °F 44.4 °F 29.90 in Calm   12 mph 55% 0.00 in 0 W/m2
01:30 59.4 °F 45.1 °F 29.90 in Calm     59% 0.00 in 0 W/m2
02:30 57.7 °F 43.9 °F 29.90 in Calm   1 mph 60% 0.00 in 0 W/m2
03:00 56.9 °F 44 °F 29.90 in Calm     62% 0.00 in 0 W/m2
03:30 55.8 °F 45 °F 29.90 in Calm     67% 0.00 in 0 W/m2
04:04 53.9 °F 45.1 °F 29.89 in Calm     72% 0.00 in 0 W/m2
04:09 53.8 °F 45.1 °F 29.89 in Calm     72.4% 0.00 in 0 W/m2
04:14 53.6 °F 45.1 °F 29.89 in Calm   1 mph 73% 0.00 in 0 W/m2
04:19 53.3 °F 45.3 °F 29.89 in Calm   1 mph 74% 0.00 in 0 W/m2
04:24 53.2 °F 45.1 °F 29.90 in Calm   1 mph 74% 0.00 in 0 W/m2
04:29 53 °F 45 °F 29.90 in Calm   1 mph 74% 0.00 in 0 W/m2
04:34 52.9 °F 44.8 °F 29.90 in Calm   1 mph 74% 0.00 in 0 W/m2
04:39 52.8 °F 44.9 °F 29.90 in Calm     74.6% 0.00 in 0 W/m2
04:44 52.6 °F 45.1 °F 29.90 in Calm     75.5% 0.00 in 0 W/m2
04:49 52.5 °F 45.2 °F 29.90 in Calm     76% 0.00 in 0 W/m2
04:54 52.4 °F 45 °F 29.90 in Calm     76% 0.00 in 0 W/m2
04:59 52.2 °F 44.9 °F 29.90 in Calm     76% 0.00 in 0 W/m2
05:04 52.1 °F 45 °F 29.90 in Calm     76.6% 0.00 in 0 W/m2
05:09 51.9 °F 45.1 °F 29.90 in Calm     77.4% 0.00 in 0 W/m2
05:14 51.7 °F 45.2 °F 29.91 in Calm     78.2% 0.00 in 0 W/m2
05:19 51.5 °F 45.5 °F 29.91 in Calm     79.7% 0.00 in 0 W/m2
05:24 51.4 °F 45.5 °F 29.91 in Calm     80.2% 0.00 in 0 W/m2
05:29 51.3 °F 45.7 °F 29.91 in Calm     81% 0.00 in 5 W/m2
05:34 51.2 °F 45.6 °F 29.91 in Calm     81% 0.00 in 7 W/m2
05:39 51.2 °F 45.6 °F 29.91 in Calm     81% 0.00 in 9 W/m2
05:44 51.1 °F 45.5 °F 29.91 in Calm     81.1% 0.00 in 11 W/m2
05:49 51.1 °F 45.5 °F 29.91 in Calm     81% 0.00 in 14 W/m2
05:54 51.2 °F 45.8 °F 29.91 in Calm     81.7% 0.00 in 18 W/m2
05:59 51.2 °F 45.6 °F 29.92 in Calm     81.2% 0.00 in 18 W/m2
06:04 51.3 °F 46 °F 29.92 in Calm     82% 0.00 in 19 W/m2
06:09 51.5 °F 46.5 °F 29.92 in North 0.2 mph 2 mph 83% 0.00 in 19 W/m2
06:14 51.7 °F 46.4 °F 29.92 in Calm   2 mph 82.2% 0.00 in 21 W/m2
06:19 51.8 °F 46.3 °F 29.92 in Calm   2 mph 81.4% 0.00 in 21 W/m2
06:24 52.1 °F 46.4 °F 29.92 in Calm   2 mph 80.8% 0.00 in 26 W/m2
06:29 52.5 °F 46.5 °F 29.92 in Calm   2 mph 80% 0.00 in 35 W/m2
06:34 52.9 °F 46.6 °F 29.92 in Calm   2 mph 79% 0.00 in 46 W/m2
06:39 53.4 °F 46.9 °F 29.92 in Calm     78.5% 0.00 in 49 W/m2
06:44 54 °F 47.3 °F 29.92 in Calm     78% 0.00 in 60 W/m2
06:49 54.9 °F 47.8 °F 29.92 in Calm     77% 0.00 in 69 W/m2
06:54 56 °F 48.3 °F 29.92 in Calm     75.3% 0.00 in 70 W/m2
06:59 57.3 °F 48.5 °F 29.92 in Calm     72.3% 0.00 in 72 W/m2
07:04 58.7 °F 49.3 °F 29.93 in Calm     70.8% 0.00 in 74 W/m2
07:09 60.1 °F 50.1 °F 29.93 in Calm     69.4% 0.00 in 76 W/m2
07:14 61.4 °F 50.2 °F 29.93 in Calm     66.8% 0.00 in 76 W/m2
07:19 62.4 °F 50.3 °F 29.93 in Calm     64.6% 0.00 in 77 W/m2
07:24 63.3 °F 50.6 °F 29.93 in Calm     63.2% 0.00 in 308 W/m2
07:29 64.1 °F 50.4 °F 29.93 in Calm     61% 0.00 in 357 W/m2
07:34 64.8 °F 50.5 °F 29.93 in Calm     59.8% 0.00 in 373 W/m2
07:39 65.4 °F 50.9 °F 29.93 in Calm     59.4% 0.00 in 392 W/m2
07:44 66 °F 51.1 °F 29.93 in Calm     58.7% 0.00 in 415 W/m2
07:49 66.4 °F 51 °F 29.93 in Calm     57.6% 0.00 in 432 W/m2
07:54 66.8 °F 50.5 °F 29.94 in Calm     55.9% 0.00 in 450 W/m2
07:59 67.3 °F 50.6 °F 29.94 in Calm     55.1% 0.00 in 466 W/m2
08:04 67.3 °F 50.6 °F 29.93 in Calm     55% 0.00 in 480 W/m2
08:09 67.5 °F 51.1 °F 29.94 in Calm   1 mph 55.6% 0.00 in 497 W/m2
08:14 68 °F 49.8 °F 29.93 in NNW 0.7 mph 5 mph 52.1% 0.00 in 517 W/m2
08:19 68.6 °F 49.5 °F 29.93 in NNW 0.7 mph 5 mph 50.5% 0.00 in 533 W/m2
08:24 69.1 °F 50.5 °F 29.94 in NW 1 mph 5 mph 51.4% 0.00 in 550 W/m2
08:29 69.5 °F 49.7 °F 29.94 in WNW 1.7 mph 6 mph 49.4% 0.00 in 566 W/m2
08:34 69.6 °F 49.9 °F 29.94 in WNW 2 mph 6 mph 49.4% 0.00 in 580 W/m2
08:39 69.9 °F 51 °F 29.94 in WNW 0.2 mph 5 mph 51.2% 0.00 in 596 W/m2
08:44 70.2 °F 50.8 °F 29.94 in WNW 0.6 mph 5 mph 50.1% 0.00 in 612 W/m2
08:49 70.5 °F 51.7 °F 29.94 in WNW 0.1 mph 5 mph 51.4% 0.00 in 628 W/m2
08:54 70.7 °F 51.4 °F 29.94 in NW 1.3 mph 6 mph 50.4% 0.00 in 643 W/m2
08:59 70.9 °F 51.4 °F 29.94 in NNW 0.5 mph 6 mph 50.1% 0.00 in 656 W/m2
09:04 70.8 °F 51.4 °F 29.95 in NNW 0.3 mph 6 mph 50.2% 0.00 in 666 W/m2
09:09 71 °F 51.7 °F 29.95 in North 0.7 mph 4 mph 50.6% 0.00 in 684 W/m2
09:14 71.2 °F 52.5 °F 29.95 in North 0.4 mph 4 mph 51.5% 0.00 in 701 W/m2
09:19 71.3 °F 51.8 °F 29.95 in NW 1.3 mph 5 mph 50.2% 0.00 in 714 W/m2
09:24 71.3 °F 51.4 °F 29.95 in WNW 0.7 mph 5 mph 49.4% 0.00 in 726 W/m2
09:29 71.7 °F 53 °F 29.95 in WNW 0.7 mph 5 mph 51.7% 0.00 in 744 W/m2
09:34 72.3 °F 53.3 °F 29.94 in WNW 0.4 mph 5 mph 51.2% 0.00 in 759 W/m2
09:39 72.8 °F 53.2 °F 29.95 in WNW 1.3 mph 6 mph 50.2% 0.00 in 765 W/m2
09:44 73 °F 52.3 °F 29.95 in WNW 1 mph 6 mph 48.2% 0.00 in 779 W/m2
09:49 73.2 °F 53.4 °F 29.95 in WNW 0.4 mph 6 mph 49.9% 0.00 in 793 W/m2
09:54 73.8 °F 54 °F 29.94 in WNW 1 mph 6 mph 50.1% 0.00 in 809 W/m2
09:59 74.4 °F 54.3 °F 29.95 in WNW 0.9 mph 6 mph 49.6% 0.00 in 814 W/m2
10:04 74.8 °F 52.8 °F 29.95 in WNW 1.9 mph 7 mph 46.3% 0.00 in 831 W/m2
10:09 74.7 °F 52.9 °F 29.94 in WSW 1.4 mph 7 mph 46.5% 0.00 in 842 W/m2
10:14 74.9 °F 53.5 °F 29.94 in WNW 1.6 mph 9 mph 47.4% 0.00 in 856 W/m2
10:19 75.2 °F 53.4 °F 29.94 in WNW 2.5 mph 9 mph 46.6% 0.00 in 861 W/m2
10:24 75.5 °F 53.4 °F 29.94 in West 1.3 mph 9 mph 46.1% 0.00 in 870 W/m2
10:29 75.8 °F 53.1 °F 29.94 in WNW 1.6 mph 9 mph 45.3% 0.00 in 875 W/m2
10:34 76 °F 52.2 °F 29.94 in WNW 2.9 mph 13 mph 43.6% 0.00 in 888 W/m2
10:39 76 °F 53.5 °F 29.93 in WNW 1.2 mph 13 mph 45.6% 0.00 in 900 W/m2
10:44 76.2 °F 51.1 °F 29.94 in North 0.5 mph 13 mph 41.5% 0.00 in 940 W/m2
10:49 76.4 °F 51.4 °F 29.93 in Calm   13 mph 41.7% 0.00 in 962 W/m2
10:54 76.3 °F 50.9 °F 29.93 in North 0.1 mph 13 mph 41% 0.00 in 972 W/m2
10:59 75.9 °F 51.2 °F 29.93 in ENE 1.4 mph 13 mph 42.1% 0.00 in 940 W/m2
11:04 75.7 °F 48.8 °F 29.93 in NW 2 mph 13 mph 38.9% 0.00 in 953 W/m2
11:09 75.9 °F 46.6 °F 29.93 in WNW 3.8 mph 15 mph 35.4% 0.00 in 953 W/m2
11:14 75.9 °F 44.6 °F 29.93 in WNW 5.6 mph 15 mph 32.8% 0.00 in 956 W/m2
11:19 75.9 °F 46.4 °F 29.93 in West 3.5 mph 15 mph 35.1% 0.00 in 962 W/m2
11:24 76.1 °F 47.6 °F 29.93 in WNW 4.3 mph 15 mph 36.5% 0.00 in 962 W/m2
11:29 76.3 °F 48.6 °F 29.93 in West 0.9 mph 15 mph 37.7% 0.00 in 969 W/m2
11:34 76.7 °F 48.5 °F 29.93 in WNW 3.1 mph 15 mph 37.1% 0.00 in 977 W/m2
11:39 76.6 °F 47.7 °F 29.93 in WNW 3.7 mph 12 mph 36% 0.00 in 997 W/m2
11:44 76.5 °F 47.9 °F 29.92 in West 4.7 mph 13 mph 36.6% 0.00 in 1002 W/m2
11:49 76.7 °F 48 °F 29.92 in WNW 2.7 mph 13 mph 36.4% 0.00 in 995 W/m2
11:54 76.8 °F 46.6 °F 29.93 in West 2.4 mph 13 mph 34.4% 0.00 in 993 W/m2
11:59 76.8 °F 46.6 °F 29.93 in West 2.2 mph 13 mph 34.4% 0.00 in 997 W/m2
12:00 76.8 °F 47.8 °F 29.92 in NW 2 mph 13 mph 36% 0.00 in 997 W/m2
12:09 77.1 °F 48.2 °F 29.92 in West 1.3 mph 7 mph 36.1% 0.00 in 1023 W/m2
12:14 77.3 °F 49.1 °F 29.92 in NW 3.2 mph 10 mph 37.1% 0.00 in 1028 W/m2
12:19 77.5 °F 49.2 °F 29.92 in NNW 2.5 mph 11 mph 37.1% 0.00 in 1016 W/m2
12:24 77.3 °F 46.8 °F 29.92 in ENE 0.8 mph 11 mph 34% 0.00 in 1014 W/m2
12:29 77 °F 47.2 °F 29.92 in NW 1.1 mph 11 mph 34.9% 0.00 in 1011 W/m2
12:34 77 °F 47.2 °F 29.92 in WSW 1.9 mph 11 mph 34.9% 0.00 in 1055 W/m2
12:39 76.8 °F 48 °F 29.92 in West 0.7 mph 11 mph 36.3% 0.00 in 1088 W/m2
12:44 77.2 °F 48.1 °F 29.92 in WSW 2.3 mph 11 mph 35.9% 0.00 in 1041 W/m2
12:49 77.6 °F 49.1 °F 29.92 in NW 1.1 mph 11 mph 36.8% 0.00 in 1041 W/m2
12:54 78.1 °F 47.5 °F 29.92 in WNW 1.7 mph 11 mph 34.1% 0.00 in 1035 W/m2
12:59 78.2 °F 48.3 °F 29.92 in West 1.7 mph 13 mph 34.9% 0.00 in 1056 W/m2
13:04 77.8 °F 48.3 °F 29.92 in NW 2.7 mph 13 mph 35.5% 0.00 in 1028 W/m2
13:09 77.6 °F 48.5 °F 29.92 in WNW 1.9 mph 10 mph 35.9% 0.00 in 1025 W/m2
13:14 77.7 °F 49 °F 29.92 in West 0.8 mph 10 mph 36.5% 0.00 in 1018 W/m2
13:19 77.9 °F 48.4 °F 29.91 in WSW 2.1 mph 10 mph 35.4% 0.00 in 1020 W/m2
13:24 78.1 °F 48.5 °F 29.91 in WNW 3.6 mph 10 mph 35.4% 0.00 in 1020 W/m2
13:29 78 °F 49 °F 29.91 in WNW 1.5 mph 10 mph 36.1% 0.00 in 1018 W/m2
13:34 78.2 °F 49.9 °F 29.91 in West 3 mph 11 mph 37.2% 0.00 in 1018 W/m2
13:39 78.3 °F 49.3 °F 29.91 in WNW 2.4 mph 11 mph 36.2% 0.00 in 1016 W/m2
13:44 78.4 °F 48.3 °F 29.91 in West 1.7 mph 11 mph 34.7% 0.00 in 1011 W/m2
13:49 78.5 °F 50.8 °F 29.91 in WNW 0.8 mph 11 mph 38% 0.00 in 1005 W/m2
13:54 78.8 °F 49.2 °F 29.90 in NW 1.1 mph 11 mph 35.4% 0.00 in 1004 W/m2
13:59 78.7 °F 48.3 °F 29.91 in WNW 3.6 mph 11 mph 34.5% 0.00 in 998 W/m2
14:04 78.3 °F 47.9 °F 29.91 in NW 4.2 mph 13 mph 34.3% 0.00 in 997 W/m2
14:09 78 °F 48.1 °F 29.90 in WSW 1.8 mph 13 mph 34.8% 0.00 in 991 W/m2
14:14 78 °F 49.9 °F 29.90 in NW 2.6 mph 13 mph 37.3% 0.00 in 984 W/m2
14:19 78.2 °F 49.6 °F 29.90 in West 3.2 mph 13 mph 36.7% 0.00 in 977 W/m2
14:24 78.3 °F 49.1 °F 29.90 in West 1.2 mph 13 mph 36% 0.00 in 976 W/m2
14:29 78.5 °F 51 °F 29.90 in WNW 1.4 mph 13 mph 38.4% 0.00 in 979 W/m2
14:34 78.8 °F 49.7 °F 29.90 in West 2.6 mph 13 mph 36.2% 0.00 in 967 W/m2
14:39 78.4 °F 48.9 °F 29.90 in WNW 3.1 mph 13 mph 35.4% 0.00 in 954 W/m2
14:44 78.2 °F 48.6 °F 29.90 in WNW 3.7 mph 13 mph 35.3% 0.00 in 946 W/m2
14:49 78.3 °F 48.1 °F 29.90 in NW 0.2 mph 13 mph 34.6% 0.00 in 939 W/m2
14:54 78.1 °F 46.9 °F 29.89 in NW 0.1 mph 13 mph 33.3% 0.00 in 935 W/m2
14:59 77.9 °F 48.4 °F 29.89 in WNW 1.7 mph 13 mph 35.5% 0.00 in 925 W/m2
15:04 78 °F 49.1 °F 29.89 in WNW 2.6 mph 13 mph 36.1% 0.00 in 918 W/m2
15:09 78.2 °F 47.8 °F 29.89 in WNW 2.6 mph 10 mph 34.2% 0.00 in 912 W/m2
15:14 78.5 °F 49 °F 29.89 in WNW 1.4 mph 10 mph 35.5% 0.00 in 904 W/m2
15:19 78.8 °F 48.3 °F 29.89 in WNW 1.3 mph 10 mph 34.3% 0.00 in 889 W/m2
15:24 79 °F 48.9 °F 29.89 in WNW 1.9 mph 11 mph 34.9% 0.00 in 879 W/m2
15:29 79 °F 47.9 °F 29.89 in WNW 3.3 mph 11 mph 33.5% 0.00 in 867 W/m2
15:34 78.8 °F 47.2 °F 29.89 in NW 2.1 mph 11 mph 32.9% 0.00 in 854 W/m2
15:39 78.8 °F 47.6 °F 29.89 in NW 1.3 mph 6 mph 33.4% 0.00 in 846 W/m2
15:44 78.9 °F 48.3 °F 29.89 in NW 2.2 mph 9 mph 34.2% 0.00 in 835 W/m2
15:49 78.9 °F 46.3 °F 29.89 in WNW 1.4 mph 9 mph 31.8% 0.00 in 821 W/m2
15:54 78.8 °F 47.9 °F 29.89 in WNW 1.2 mph 9 mph 33.8% 0.00 in 810 W/m2
16:04 78.9 °F 48.2 °F 29.89 in Calm     34% 0.00 in 772 W/m2
16:09 78.9 °F 48.8 °F 29.89 in NW 1.5 mph 7 mph 34.8% 0.00 in 773 W/m2
16:14 78.8 °F 46.8 °F 29.89 in North 1.1 mph 9 mph 32.3% 0.00 in 763 W/m2
16:19 78.4 °F 46.7 °F 29.89 in NW 0.3 mph 9 mph 32.7% 0.00 in 47 W/m2
16:24 78.1 °F 46 °F 29.89 in West 2.2 mph 9 mph 32.2% 0.00 in 46 W/m2
16:29 78 °F 47 °F 29.89 in West 0.9 mph 9 mph 33.6% 0.00 in 44 W/m2
16:34 77.9 °F 46.8 °F 29.89 in WSW 1.1 mph 9 mph 33.4% 0.00 in 44 W/m2
16:39 77.8 °F 45.9 °F 29.89 in WSW 0.5 mph 5 mph 32.4% 0.00 in 44 W/m2
16:44 77.7 °F 48 °F 29.89 in West 0.9 mph 5 mph 35.1% 0.00 in 42 W/m2
16:49 77.7 °F 49.4 °F 29.89 in WNW 0.7 mph 5 mph 37% 0.00 in 42 W/m2
16:54 77.5 °F 48.5 °F 29.89 in NW 1.4 mph 11 mph 36% 0.00 in 42 W/m2
16:59 77.5 °F 49.2 °F 29.89 in West 1.9 mph 11 mph 37% 0.00 in 42 W/m2
17:04 77.5 °F 48.8 °F 29.89 in NW 1.4 mph 11 mph 36.5% 0.00 in 40 W/m2
17:09 77.5 °F 49.1 °F 29.89 in West 1.7 mph 9 mph 36.9% 0.00 in 40 W/m2
17:14 77.5 °F 48.3 °F 29.89 in West 1.6 mph 9 mph 35.8% 0.00 in 51 W/m2
17:19 77.4 °F 48.4 °F 29.89 in West 0.4 mph 9 mph 36.1% 0.00 in 65 W/m2
17:24 77.2 °F 48.8 °F 29.89 in WNW 1.6 mph 9 mph 36.8% 0.00 in 74 W/m2
17:29 77.1 °F 48.3 °F 29.89 in West 1.6 mph 9 mph 36.3% 0.00 in 84 W/m2
17:34 77 °F 49.2 °F 29.89 in West 1.7 mph 9 mph 37.6% 0.00 in 81 W/m2
17:39 77.1 °F 49.6 °F 29.89 in WNW 3.3 mph 11 mph 38.1% 0.00 in 83 W/m2
17:44 77.3 °F 49 °F 29.89 in WSW 2 mph 11 mph 37.1% 0.00 in 77 W/m2
17:49 77.5 °F 50.4 °F 29.89 in West 0.3 mph 11 mph 38.8% 0.00 in 53 W/m2
17:54 77.6 °F 50.1 °F 29.89 in WNW 1.9 mph 11 mph 38.1% 0.00 in 42 W/m2
17:59 77.6 °F 48.4 °F 29.89 in West 1.2 mph 11 mph 35.8% 0.00 in 40 W/m2
18:04 77.5 °F 48.1 °F 29.90 in West 3.5 mph 11 mph 35.6% 0.00 in 39 W/m2
18:09 77.2 °F 48.5 °F 29.90 in West 1.9 mph 10 mph 36.4% 0.00 in 37 W/m2
18:14 77 °F 47.8 °F 29.90 in WNW 1.2 mph 10 mph 35.7% 0.00 in 35 W/m2
18:19 76.8 °F 47.5 °F 29.90 in WNW 2.9 mph 10 mph 35.4% 0.00 in 33 W/m2
18:24 76.7 °F 47.4 °F 29.90 in WNW 0.6 mph 10 mph 35.5% 0.00 in 33 W/m2
18:29 76.7 °F 47.7 °F 29.90 in WNW 0.5 mph 10 mph 35.9% 0.00 in 33 W/m2
18:34 76.7 °F 47.2 °F 29.90 in WNW 1.1 mph 10 mph 35.2% 0.00 in 32 W/m2
18:39 76.6 °F 46.7 °F 29.90 in WNW 1.9 mph 7 mph 34.7% 0.00 in 32 W/m2
18:44 76.4 °F 47 °F 29.90 in WNW 2.3 mph 9 mph 35.3% 0.00 in 32 W/m2
18:49 76.2 °F 46.9 °F 29.90 in WNW 2.1 mph 9 mph 35.4% 0.00 in 30 W/m2
18:54 76 °F 46.2 °F 29.90 in WNW 3.1 mph 10 mph 34.8% 0.00 in 28 W/m2
18:59 75.8 °F 45.3 °F 29.91 in WNW 2.6 mph 10 mph 33.8% 0.00 in 28 W/m2
19:04 75.6 °F 45.7 °F 29.91 in West 2.6 mph 10 mph 34.6% 0.00 in 28 W/m2
19:09 75.3 °F 46 °F 29.90 in WNW 0.6 mph 7 mph 35.3% 0.00 in 26 W/m2
19:14 75.2 °F 46.5 °F 29.91 in WNW 1.7 mph 7 mph 36% 0.00 in 26 W/m2
19:19 75 °F 45.8 °F 29.91 in WNW 0.7 mph 7 mph 35.3% 0.00 in 25 W/m2
19:24 74.9 °F 46.1 °F 29.91 in NW 0.9 mph 7 mph 35.9% 0.00 in 25 W/m2
19:29 74.7 °F 45.5 °F 29.91 in NW 1.6 mph 7 mph 35.3% 0.00 in 23 W/m2
19:34 74.6 °F 45.8 °F 29.91 in NW 0.2 mph 7 mph 35.9% 0.00 in 19 W/m2
19:39 74.4 °F 46 °F 29.91 in Calm   1 mph 36.3% 0.00 in 19 W/m2
19:44 74.2 °F 46.3 °F 29.92 in Calm   1 mph 37% 0.00 in 16 W/m2
19:49 74 °F 46.1 °F 29.91 in Calm   1 mph 37% 0.00 in 16 W/m2
19:54 73.8 °F 46.4 °F 29.92 in Calm   1 mph 37.6% 0.00 in 16 W/m2
19:58 73.6 °F 46.5 °F 29.92 in Calm   1 mph 38% 0.00 in 14 W/m2
20:00 73.5 °F 46.4 °F 29.91 in Calm   1 mph 38% 0.00 in 11 W/m2
20:09 73.1 °F 46.5 °F 29.92 in Calm     38.7% 0.00 in 11 W/m2
20:14 72.9 °F 46.7 °F 29.92 in Calm     39.4% 0.00 in 7 W/m2
20:19 72.5 °F 47 °F 29.92 in Calm     40.3% 0.00 in 0 W/m2
20:24 72.1 °F 47.1 °F 29.92 in Calm     41% 0.00 in 0 W/m2
20:29 71.7 °F 46.8 °F 29.92 in Calm     41% 0.00 in 0 W/m2
20:34 71.4 °F 47 °F 29.92 in Calm     41.9% 0.00 in 0 W/m2
20:39 71 °F 47.4 °F 29.92 in Calm     43% 0.00 in 0 W/m2
20:44 70.6 °F 47.5 °F 29.92 in Calm     43.7% 0.00 in 0 W/m2
20:49 70.3 °F 47.6 °F 29.93 in Calm     44.3% 0.00 in 0 W/m2
20:54 70 °F 48.2 °F 29.93 in Calm     45.8% 0.00 in 0 W/m2
20:59 69.6 °F 48.5 °F 29.93 in Calm     47% 0.00 in 0 W/m2
21:04 69.2 °F 48.5 °F 29.93 in Calm     47.6% 0.00 in 0 W/m2
21:09 68.9 °F 49.1 °F 29.93 in Calm     49.3% 0.00 in 0 W/m2
21:14 68.5 °F 49.5 °F 29.94 in Calm     50.7% 0.00 in 0 W/m2
21:19 68.1 °F 49.3 °F 29.94 in Calm     51% 0.00 in 0 W/m2
21:24 67.7 °F 48.9 °F 29.94 in Calm     51% 0.00 in 0 W/m2
21:29 67.3 °F 48.2 °F 29.94 in Calm     50.3% 0.00 in 0 W/m2
21:34 66.9 °F 48.4 °F 29.94 in Calm     51.3% 0.00 in 0 W/m2
21:39 66.5 °F 48.3 °F 29.95 in Calm     51.9% 0.00 in 0 W/m2
21:44 66.1 °F 47.9 °F 29.95 in Calm     51.8% 0.00 in 0 W/m2
21:49 65.8 °F 48.4 °F 29.95 in Calm     53.5% 0.00 in 0 W/m2
21:54 65.4 °F 48.5 °F 29.95 in Calm     54.3% 0.00 in 0 W/m2
21:59 65.1 °F 48.9 °F 29.95 in Calm     55.6% 0.00 in 0 W/m2
22:04 64.8 °F 49.2 °F 29.95 in Calm     56.9% 0.00 in 0 W/m2
22:09 64.6 °F 49.9 °F 29.95 in Calm     59% 0.00 in 0 W/m2
22:14 64.4 °F 49.7 °F 29.95 in Calm     59% 0.00 in 0 W/m2
22:19 64.1 °F 49.3 °F 29.96 in Calm     58.5% 0.00 in 0 W/m2
22:24 63.9 °F 48.9 °F 29.96 in NW 0.1 mph 2 mph 58.2% 0.00 in 0 W/m2
22:29 63.7 °F 48.6 °F 29.96 in Calm   2 mph 58% 0.00 in 0 W/m2
22:34 63.5 °F 48.2 °F 29.96 in Calm   2 mph 57.5% 0.00 in 0 W/m2
22:39 63.4 °F 47.9 °F 29.96 in Calm     57% 0.00 in 0 W/m2
22:44 63.3 °F 48 °F 29.96 in Calm     57.5% 0.00 in 0 W/m2
22:49 63.2 °F 47.7 °F 29.96 in Calm     57% 0.00 in 0 W/m2
22:54 63.1 °F 47.9 °F 29.96 in Calm     57.6% 0.00 in 0 W/m2
22:59 63.1 °F 48.1 °F 29.96 in Calm     58% 0.00 in 0 W/m2
23:04 63 °F 48.3 °F 29.96 in Calm     58.7% 0.00 in 0 W/m2
23:09 62.9 °F 48.4 °F 29.96 in Calm     59% 0.00 in 0 W/m2
23:14 62.8 °F 48.3 °F 29.96 in Calm     59% 0.00 in 0 W/m2
23:19 62.7 °F 48.2 °F 29.96 in Calm     59% 0.00 in 0 W/m2
23:24 62.6 °F 48.1 °F 29.96 in Calm     59% 0.00 in 0 W/m2
23:29 62.6 °F 48.5 °F 29.96 in Calm     59.9% 0.00 in 0 W/m2
23:34 62.6 °F 48.5 °F 29.96 in Calm     60% 0.00 in 0 W/m2
23:39 62.5 °F 48.5 °F 29.96 in Calm     60.2% 0.00 in 0 W/m2
23:44 62.5 °F 48.9 °F 29.96 in NW 0.1 mph 1 mph 61% 0.00 in 0 W/m2
23:49 62.4 °F 48.4 °F 29.96 in Calm   1 mph 60.2% 0.00 in 0 W/m2
23:54 62.3 °F 48.3 °F 29.97 in Calm   1 mph 60% 0.00 in 0 W/m2
23:59 62.2 °F 48.2 °F 29.97 in Calm   1 mph 60% 0.00 in 0 W/m2
Hartford County Weather
Compliments of Weather Underground - 4 mb